Terminal Aerodrome Forecast
Issued by NWS

Home | Current Version | Previous Version | Text Only | Print | Product List | Glossary On
Versions: 1 2 3 4 5 6 7 8 9 10 11 12 13 14 15 16 17 18 19 20 21 22 23 24 25 26 27 28 29 30 31 32 33
000
FTAK31 PANC 231740
TAFADQ
TAF
PADQ 231740Z 2318/2418 11008KT P6SM VCSH SCT022 BKN035
      TEMPO 2318/2322 VRB06KT -SHRASN BKN022
     FM240000 18005KT P6SM VCSH SCT025 BKN040
     FM240900 12006KT P6SM -SHRASN BKN025=

USA.gov is the U.S. government's official web portal to all federal, state and local government web resources and services.